sensor_id;sensor_type;location;lat;lon;timestamp;P1;durP1;ratioP1;P2;durP2;ratioP2
28022;SDS011;67403;50.104;8.758;2023-04-26T00:00:16;4.10;;;2.28;;
28022;SDS011;67403;50.104;8.758;2023-04-26T00:02:44;7.43;;;2.22;;
28022;SDS011;67403;50.104;8.758;2023-04-26T00:05:12;3.83;;;2.00;;
28022;SDS011;67403;50.104;8.758;2023-04-26T00:07:40;3.08;;;2.13;;
28022;SDS011;67403;50.104;8.758;2023-04-26T00:10:08;2.83;;;1.90;;
28022;SDS011;67403;50.104;8.758;2023-04-26T00:12:36;3.13;;;1.83;;
28022;SDS011;67403;50.104;8.758;2023-04-26T00:15:05;6.60;;;2.20;;
28022;SDS011;67403;50.104;8.758;2023-04-26T00:17:33;5.72;;;2.15;;
28022;SDS011;67403;50.104;8.758;2023-04-26T00:20:00;7.55;;;2.15;;
28022;SDS011;67403;50.104;8.758;2023-04-26T00:22:30;6.75;;;2.15;;
28022;SDS011;67403;50.104;8.758;2023-04-26T00:24:57;8.77;;;2.67;;
28022;SDS011;67403;50.104;8.758;2023-04-26T00:27:24;3.80;;;2.53;;
28022;SDS011;67403;50.104;8.758;2023-04-26T00:29:51;8.90;;;3.10;;
28022;SDS011;67403;50.104;8.758;2023-04-26T00:32:18;3.50;;;2.03;;
28022;SDS011;67403;50.104;8.758;2023-04-26T00:34:44;4.45;;;2.03;;
28022;SDS011;67403;50.104;8.758;2023-04-26T00:37:11;6.03;;;2.47;;
28022;SDS011;67403;50.104;8.758;2023-04-26T00:39:40;8.02;;;2.22;;
28022;SDS011;67403;50.104;8.758;2023-04-26T00:42:06;6.60;;;2.28;;
28022;SDS011;67403;50.104;8.758;2023-04-26T00:44:33;8.18;;;2.08;;
28022;SDS011;67403;50.104;8.758;2023-04-26T00:47:00;5.90;;;2.60;;
28022;SDS011;67403;50.104;8.758;2023-04-26T00:49:27;4.18;;;1.98;;
28022;SDS011;67403;50.104;8.758;2023-04-26T00:51:55;3.92;;;2.50;;
28022;SDS011;67403;50.104;8.758;2023-04-26T00:54:22;3.53;;;2.33;;
28022;SDS011;67403;50.104;8.758;2023-04-26T00:56:51;3.45;;;2.03;;
28022;SDS011;67403;50.104;8.758;2023-04-26T00:59:19;3.60;;;1.93;;
28022;SDS011;67403;50.104;8.758;2023-04-26T01:01:46;4.93;;;2.22;;
28022;SDS011;67403;50.104;8.758;2023-04-26T01:04:13;6.32;;;2.45;;
28022;SDS011;67403;50.104;8.758;2023-04-26T01:06:40;6.10;;;2.90;;
28022;SDS011;67403;50.104;8.758;2023-04-26T01:09:07;5.53;;;2.58;;
28022;SDS011;67403;50.104;8.758;2023-04-26T01:11:38;3.88;;;2.60;;
28022;SDS011;67403;50.104;8.758;2023-04-26T01:14:08;5.65;;;2.50;;
28022;SDS011;67403;50.104;8.758;2023-04-26T01:16:36;7.28;;;2.63;;
28022;SDS011;67403;50.104;8.758;2023-04-26T01:19:06;1.92;;;1.73;;
28022;SDS011;67403;50.104;8.758;2023-04-26T01:21:35;3.55;;;2.25;;
28022;SDS011;67403;50.104;8.758;2023-04-26T01:24:03;4.55;;;2.20;;
28022;SDS011;67403;50.104;8.758;2023-04-26T01:26:31;4.72;;;2.60;;
28022;SDS011;67403;50.104;8.758;2023-04-26T01:28:58;2.90;;;2.25;;
28022;SDS011;67403;50.104;8.758;2023-04-26T01:31:25;4.35;;;2.50;;
28022;SDS011;67403;50.104;8.758;2023-04-26T01:33:52;3.28;;;2.47;;
28022;SDS011;67403;50.104;8.758;2023-04-26T01:36:19;6.95;;;3.05;;
28022;SDS011;67403;50.104;8.758;2023-04-26T01:38:46;5.63;;;3.25;;
28022;SDS011;67403;50.104;8.758;2023-04-26T01:41:14;3.20;;;2.50;;
28022;SDS011;67403;50.104;8.758;2023-04-26T01:43:41;3.97;;;2.53;;
28022;SDS011;67403;50.104;8.758;2023-04-26T01:46:08;3.90;;;2.22;;
28022;SDS011;67403;50.104;8.758;2023-04-26T01:48:35;5.63;;;2.90;;
28022;SDS011;67403;50.104;8.758;2023-04-26T01:51:02;7.88;;;2.75;;
28022;SDS011;67403;50.104;8.758;2023-04-26T01:53:29;4.78;;;2.83;;
28022;SDS011;67403;50.104;8.758;2023-04-26T01:55:59;5.97;;;2.70;;
28022;SDS011;67403;50.104;8.758;2023-04-26T01:58:27;5.82;;;2.65;;
28022;SDS011;67403;50.104;8.758;2023-04-26T02:00:55;5.05;;;2.85;;
28022;SDS011;67403;50.104;8.758;2023-04-26T02:03:22;5.38;;;2.97;;
28022;SDS011;67403;50.104;8.758;2023-04-26T02:05:49;12.70;;;3.53;;
28022;SDS011;67403;50.104;8.758;2023-04-26T02:08:16;5.82;;;2.45;;
28022;SDS011;67403;50.104;8.758;2023-04-26T02:10:43;5.85;;;2.90;;
28022;SDS011;67403;50.104;8.758;2023-04-26T02:13:10;8.80;;;3.10;;
28022;SDS011;67403;50.104;8.758;2023-04-26T02:15:38;7.40;;;3.40;;
28022;SDS011;67403;50.104;8.758;2023-04-26T02:18:05;7.93;;;3.33;;
28022;SDS011;67403;50.104;8.758;2023-04-26T02:20:32;8.10;;;3.50;;
28022;SDS011;67403;50.104;8.758;2023-04-26T02:22:58;7.13;;;3.22;;
28022;SDS011;67403;50.104;8.758;2023-04-26T02:25:25;8.10;;;3.60;;
28022;SDS011;67403;50.104;8.758;2023-04-26T02:27:52;4.78;;;3.40;;
28022;SDS011;67403;50.104;8.758;2023-04-26T02:30:19;5.55;;;2.95;;
28022;SDS011;67403;50.104;8.758;2023-04-26T02:32:48;6.00;;;3.15;;
28022;SDS011;67403;50.104;8.758;2023-04-26T02:35:15;7.07;;;3.42;;
28022;SDS011;67403;50.104;8.758;2023-04-26T02:37:42;4.55;;;3.17;;
28022;SDS011;67403;50.104;8.758;2023-04-26T02:40:13;7.85;;;2.97;;
28022;SDS011;67403;50.104;8.758;2023-04-26T02:42:40;5.65;;;2.95;;
28022;SDS011;67403;50.104;8.758;2023-04-26T02:45:07;6.13;;;2.80;;
28022;SDS011;67403;50.104;8.758;2023-04-26T02:47:34;4.43;;;2.95;;
28022;SDS011;67403;50.104;8.758;2023-04-26T02:50:04;3.80;;;2.30;;
28022;SDS011;67403;50.104;8.758;2023-04-26T02:52:32;4.72;;;2.67;;
28022;SDS011;67403;50.104;8.758;2023-04-26T02:54:59;4.43;;;2.60;;
28022;SDS011;67403;50.104;8.758;2023-04-26T02:57:26;4.82;;;2.90;;
28022;SDS011;67403;50.104;8.758;2023-04-26T02:59:53;8.68;;;3.40;;
28022;SDS011;67403;50.104;8.758;2023-04-26T03:02:20;9.55;;;2.58;;
28022;SDS011;67403;50.104;8.758;2023-04-26T03:04:47;9.90;;;3.30;;
28022;SDS011;67403;50.104;8.758;2023-04-26T03:07:15;5.03;;;3.05;;
28022;SDS011;67403;50.104;8.758;2023-04-26T03:09:42;9.18;;;3.25;;
28022;SDS011;67403;50.104;8.758;2023-04-26T03:12:10;6.85;;;2.90;;
28022;SDS011;67403;50.104;8.758;2023-04-26T03:14:37;8.50;;;3.53;;
28022;SDS011;67403;50.104;8.758;2023-04-26T03:17:04;4.85;;;2.72;;
28022;SDS011;67403;50.104;8.758;2023-04-26T03:19:31;4.70;;;3.13;;
28022;SDS011;67403;50.104;8.758;2023-04-26T03:21:58;9.85;;;3.47;;
28022;SDS011;67403;50.104;8.758;2023-04-26T03:24:27;7.70;;;3.15;;
28022;SDS011;67403;50.104;8.758;2023-04-26T03:26:53;6.13;;;2.75;;
28022;SDS011;67403;50.104;8.758;2023-04-26T03:29:20;5.50;;;2.63;;
28022;SDS011;67403;50.104;8.758;2023-04-26T03:31:47;9.02;;;3.30;;
28022;SDS011;67403;50.104;8.758;2023-04-26T03:34:14;4.20;;;2.75;;
28022;SDS011;67403;50.104;8.758;2023-04-26T03:36:41;8.63;;;3.13;;
28022;SDS011;67403;50.104;8.758;2023-04-26T03:39:08;11.05;;;3.13;;
28022;SDS011;67403;50.104;8.758;2023-04-26T03:41:37;5.45;;;3.13;;
28022;SDS011;67403;50.104;8.758;2023-04-26T03:44:04;7.47;;;3.13;;
28022;SDS011;67403;50.104;8.758;2023-04-26T03:46:31;7.93;;;2.90;;
28022;SDS011;67403;50.104;8.758;2023-04-26T03:48:58;6.00;;;2.85;;
28022;SDS011;67403;50.104;8.758;2023-04-26T03:51:25;7.45;;;3.10;;
28022;SDS011;67403;50.104;8.758;2023-04-26T03:53:52;4.65;;;3.05;;
28022;SDS011;67403;50.104;8.758;2023-04-26T03:56:19;7.72;;;3.72;;
28022;SDS011;67403;50.104;8.758;2023-04-26T03:58:47;6.63;;;2.97;;
28022;SDS011;67403;50.104;8.758;2023-04-26T04:01:14;7.68;;;4.05;;
28022;SDS011;67403;50.104;8.758;2023-04-26T04:03:41;8.57;;;3.20;;
28022;SDS011;67403;50.104;8.758;2023-04-26T04:06:08;8.07;;;3.67;;
28022;SDS011;67403;50.104;8.758;2023-04-26T04:08:35;8.00;;;3.08;;
28022;SDS011;67403;50.104;8.758;2023-04-26T04:11:02;9.32;;;4.00;;
28022;SDS011;67403;50.104;8.758;2023-04-26T04:13:29;8.20;;;3.53;;
28022;SDS011;67403;50.104;8.758;2023-04-26T04:15:57;4.63;;;3.53;;
28022;SDS011;67403;50.104;8.758;2023-04-26T04:18:24;8.48;;;3.35;;
28022;SDS011;67403;50.104;8.758;2023-04-26T04:20:51;8.27;;;3.60;;
28022;SDS011;67403;50.104;8.758;2023-04-26T04:23:18;7.60;;;3.75;;
28022;SDS011;67403;50.104;8.758;2023-04-26T04:25:44;9.82;;;4.03;;
28022;SDS011;67403;50.104;8.758;2023-04-26T04:28:13;6.30;;;3.60;;
28022;SDS011;67403;50.104;8.758;2023-04-26T04:30:40;5.15;;;3.05;;
28022;SDS011;67403;50.104;8.758;2023-04-26T04:33:09;8.13;;;3.28;;
28022;SDS011;67403;50.104;8.758;2023-04-26T04:35:36;10.95;;;3.58;;
28022;SDS011;67403;50.104;8.758;2023-04-26T04:38:03;8.57;;;3.53;;
28022;SDS011;67403;50.104;8.758;2023-04-26T04:40:30;7.55;;;3.90;;
28022;SDS011;67403;50.104;8.758;2023-04-26T04:42:57;8.35;;;3.67;;
28022;SDS011;67403;50.104;8.758;2023-04-26T04:45:25;9.75;;;3.60;;
28022;SDS011;67403;50.104;8.758;2023-04-26T04:47:52;5.97;;;3.97;;
28022;SDS011;67403;50.104;8.758;2023-04-26T04:50:21;7.68;;;3.60;;
28022;SDS011;67403;50.104;8.758;2023-04-26T04:52:48;8.00;;;3.80;;
28022;SDS011;67403;50.104;8.758;2023-04-26T04:55:15;9.55;;;4.43;;
28022;SDS011;67403;50.104;8.758;2023-04-26T04:57:42;7.28;;;3.60;;
28022;SDS011;67403;50.104;8.758;2023-04-26T05:00:10;7.55;;;4.13;;
28022;SDS011;67403;50.104;8.758;2023-04-26T05:02:38;8.07;;;4.63;;
28022;SDS011;67403;50.104;8.758;2023-04-26T05:05:05;9.40;;;3.67;;
28022;SDS011;67403;50.104;8.758;2023-04-26T05:07:34;7.30;;;3.97;;
28022;SDS011;67403;50.104;8.758;2023-04-26T05:10:01;10.88;;;3.92;;
28022;SDS011;67403;50.104;8.758;2023-04-26T05:12:28;7.38;;;4.43;;
28022;SDS011;67403;50.104;8.758;2023-04-26T05:14:55;7.38;;;4.03;;
28022;SDS011;67403;50.104;8.758;2023-04-26T05:17:22;10.30;;;4.20;;
28022;SDS011;67403;50.104;8.758;2023-04-26T05:19:49;5.80;;;3.78;;
28022;SDS011;67403;50.104;8.758;2023-04-26T05:22:16;5.85;;;3.58;;
28022;SDS011;67403;50.104;8.758;2023-04-26T05:24:46;11.07;;;4.18;;
28022;SDS011;67403;50.104;8.758;2023-04-26T05:27:13;10.10;;;5.13;;
28022;SDS011;67403;50.104;8.758;2023-04-26T05:29:41;8.15;;;3.90;;
28022;SDS011;67403;50.104;8.758;2023-04-26T05:32:08;5.90;;;3.70;;
28022;SDS011;67403;50.104;8.758;2023-04-26T05:34:35;8.50;;;3.88;;
28022;SDS011;67403;50.104;8.758;2023-04-26T05:37:02;10.02;;;3.53;;
28022;SDS011;67403;50.104;8.758;2023-04-26T05:39:29;8.90;;;4.07;;
28022;SDS011;67403;50.104;8.758;2023-04-26T05:41:58;6.88;;;3.90;;
28022;SDS011;67403;50.104;8.758;2023-04-26T05:44:25;10.30;;;4.28;;
28022;SDS011;67403;50.104;8.758;2023-04-26T05:46:52;5.38;;;3.60;;
28022;SDS011;67403;50.104;8.758;2023-04-26T05:49:19;9.57;;;4.63;;
28022;SDS011;67403;50.104;8.758;2023-04-26T05:51:46;6.50;;;3.88;;
28022;SDS011;67403;50.104;8.758;2023-04-26T05:54:13;9.75;;;4.28;;
28022;SDS011;67403;50.104;8.758;2023-04-26T05:56:40;8.77;;;4.43;;
28022;SDS011;67403;50.104;8.758;2023-04-26T05:59:08;9.45;;;4.45;;
28022;SDS011;67403;50.104;8.758;2023-04-26T06:01:36;8.63;;;4.60;;
28022;SDS011;67403;50.104;8.758;2023-04-26T06:04:03;7.22;;;4.85;;
28022;SDS011;67403;50.104;8.758;2023-04-26T06:06:31;8.57;;;4.82;;
28022;SDS011;67403;50.104;8.758;2023-04-26T06:08:57;8.10;;;4.72;;
28022;SDS011;67403;50.104;8.758;2023-04-26T06:11:24;14.35;;;4.82;;
28022;SDS011;67403;50.104;8.758;2023-04-26T06:13:51;8.35;;;4.70;;
28022;SDS011;67403;50.104;8.758;2023-04-26T06:16:20;13.20;;;5.38;;
28022;SDS011;67403;50.104;8.758;2023-04-26T06:18:47;11.77;;;4.95;;
28022;SDS011;67403;50.104;8.758;2023-04-26T06:21:14;7.22;;;4.88;;
28022;SDS011;67403;50.104;8.758;2023-04-26T06:23:41;8.40;;;5.07;;
28022;SDS011;67403;50.104;8.758;2023-04-26T06:26:08;12.05;;;5.13;;
28022;SDS011;67403;50.104;8.758;2023-04-26T06:28:35;9.52;;;5.30;;
28022;SDS011;67403;50.104;8.758;2023-04-26T06:31:02;10.63;;;4.75;;
28022;SDS011;67403;50.104;8.758;2023-04-26T06:33:30;9.93;;;5.18;;
28022;SDS011;67403;50.104;8.758;2023-04-26T06:35:57;16.92;;;4.75;;
28022;SDS011;67403;50.104;8.758;2023-04-26T06:38:24;9.27;;;5.30;;
28022;SDS011;67403;50.104;8.758;2023-04-26T06:40:51;12.43;;;4.70;;
28022;SDS011;67403;50.104;8.758;2023-04-26T06:43:18;9.82;;;4.00;;
28022;SDS011;67403;50.104;8.758;2023-04-26T06:45:45;7.55;;;4.30;;
28022;SDS011;67403;50.104;8.758;2023-04-26T06:48:12;6.97;;;4.50;;
28022;SDS011;67403;50.104;8.758;2023-04-26T06:50:40;7.25;;;3.83;;
28022;SDS011;67403;50.104;8.758;2023-04-26T06:53:07;7.13;;;4.00;;
28022;SDS011;67403;50.104;8.758;2023-04-26T06:55:34;11.20;;;4.28;;
28022;SDS011;67403;50.104;8.758;2023-04-26T06:58:00;6.43;;;4.25;;
28022;SDS011;67403;50.104;8.758;2023-04-26T07:00:28;7.22;;;4.70;;
28022;SDS011;67403;50.104;8.758;2023-04-26T07:02:55;13.52;;;3.90;;
28022;SDS011;67403;50.104;8.758;2023-04-26T07:05:22;6.97;;;4.40;;
28022;SDS011;67403;50.104;8.758;2023-04-26T07:07:50;9.10;;;3.97;;
28022;SDS011;67403;50.104;8.758;2023-04-26T07:10:17;8.77;;;4.43;;
28022;SDS011;67403;50.104;8.758;2023-04-26T07:12:45;9.70;;;3.75;;
28022;SDS011;67403;50.104;8.758;2023-04-26T07:15:12;13.15;;;4.32;;
28022;SDS011;67403;50.104;8.758;2023-04-26T07:17:39;7.57;;;4.15;;
28022;SDS011;67403;50.104;8.758;2023-04-26T07:20:06;6.85;;;3.60;;
28022;SDS011;67403;50.104;8.758;2023-04-26T07:22:34;6.57;;;3.30;;
28022;SDS011;67403;50.104;8.758;2023-04-26T07:25:02;11.88;;;3.85;;
28022;SDS011;67403;50.104;8.758;2023-04-26T07:27:30;6.97;;;3.30;;
28022;SDS011;67403;50.104;8.758;2023-04-26T07:29:57;10.98;;;3.60;;
28022;SDS011;67403;50.104;8.758;2023-04-26T07:32:24;5.78;;;3.67;;
28022;SDS011;67403;50.104;8.758;2023-04-26T07:34:51;7.78;;;3.38;;
28022;SDS011;67403;50.104;8.758;2023-04-26T07:37:18;6.10;;;3.22;;
28022;SDS011;67403;50.104;8.758;2023-04-26T07:39:45;10.25;;;3.55;;
28022;SDS011;67403;50.104;8.758;2023-04-26T07:42:13;4.70;;;3.05;;
28022;SDS011;67403;50.104;8.758;2023-04-26T07:44:40;5.53;;;3.20;;
28022;SDS011;67403;50.104;8.758;2023-04-26T07:47:10;5.40;;;2.80;;
28022;SDS011;67403;50.104;8.758;2023-04-26T07:49:38;11.50;;;3.35;;
28022;SDS011;67403;50.104;8.758;2023-04-26T07:52:06;6.40;;;3.05;;
28022;SDS011;67403;50.104;8.758;2023-04-26T07:54:33;11.02;;;3.10;;
28022;SDS011;67403;50.104;8.758;2023-04-26T07:57:01;6.90;;;2.67;;
28022;SDS011;67403;50.104;8.758;2023-04-26T07:59:29;4.43;;;2.42;;
28022;SDS011;67403;50.104;8.758;2023-04-26T08:01:56;3.42;;;2.60;;
28022;SDS011;67403;50.104;8.758;2023-04-26T08:04:29;3.13;;;2.10;;
28022;SDS011;67403;50.104;8.758;2023-04-26T08:06:57;5.28;;;2.28;;
28022;SDS011;67403;50.104;8.758;2023-04-26T08:09:25;4.95;;;2.00;;
28022;SDS011;67403;50.104;8.758;2023-04-26T08:11:52;7.15;;;3.53;;
28022;SDS011;67403;50.104;8.758;2023-04-26T08:14:19;5.88;;;2.58;;
28022;SDS011;67403;50.104;8.758;2023-04-26T08:16:48;5.57;;;2.13;;
28022;SDS011;67403;50.104;8.758;2023-04-26T08:19:15;9.10;;;2.45;;
28022;SDS011;67403;50.104;8.758;2023-04-26T08:21:42;4.75;;;2.03;;
28022;SDS011;67403;50.104;8.758;2023-04-26T08:24:09;5.13;;;2.20;;
28022;SDS011;67403;50.104;8.758;2023-04-26T08:26:36;3.10;;;2.00;;
28022;SDS011;67403;50.104;8.758;2023-04-26T08:29:03;7.43;;;2.00;;
28022;SDS011;67403;50.104;8.758;2023-04-26T08:31:30;15.68;;;6.32;;
28022;SDS011;67403;50.104;8.758;2023-04-26T08:33:58;10.90;;;4.35;;
28022;SDS011;67403;50.104;8.758;2023-04-26T08:36:25;4.63;;;2.20;;
28022;SDS011;67403;50.104;8.758;2023-04-26T08:38:52;7.70;;;1.75;;
28022;SDS011;67403;50.104;8.758;2023-04-26T08:41:21;6.05;;;2.42;;
28022;SDS011;67403;50.104;8.758;2023-04-26T08:43:49;5.30;;;2.20;;
28022;SDS011;67403;50.104;8.758;2023-04-26T08:46:17;4.80;;;2.10;;
28022;SDS011;67403;50.104;8.758;2023-04-26T08:48:47;2.45;;;1.70;;
28022;SDS011;67403;50.104;8.758;2023-04-26T08:51:21;6.60;;;3.17;;
28022;SDS011;67403;50.104;8.758;2023-04-26T08:53:48;5.38;;;2.30;;
28022;SDS011;67403;50.104;8.758;2023-04-26T08:56:17;6.65;;;1.98;;
28022;SDS011;67403;50.104;8.758;2023-04-26T08:58:47;5.10;;;2.33;;
28022;SDS011;67403;50.104;8.758;2023-04-26T09:01:15;5.13;;;2.20;;
28022;SDS011;67403;50.104;8.758;2023-04-26T09:03:43;5.93;;;2.17;;
28022;SDS011;67403;50.104;8.758;2023-04-26T09:06:10;6.43;;;2.13;;
28022;SDS011;67403;50.104;8.758;2023-04-26T09:08:39;9.60;;;2.47;;
28022;SDS011;67403;50.104;8.758;2023-04-26T09:11:07;5.32;;;2.20;;
28022;SDS011;67403;50.104;8.758;2023-04-26T09:13:34;4.00;;;1.92;;
28022;SDS011;67403;50.104;8.758;2023-04-26T09:16:01;4.50;;;2.05;;
28022;SDS011;67403;50.104;8.758;2023-04-26T09:18:28;4.55;;;2.55;;
28022;SDS011;67403;50.104;8.758;2023-04-26T09:21:02;4.43;;;2.60;;
28022;SDS011;67403;50.104;8.758;2023-04-26T09:23:31;6.68;;;1.77;;
28022;SDS011;67403;50.104;8.758;2023-04-26T09:26:18;8.00;;;2.58;;
28022;SDS011;67403;50.104;8.758;2023-04-26T09:28:46;8.95;;;2.35;;
28022;SDS011;67403;50.104;8.758;2023-04-26T09:31:13;6.20;;;2.55;;
28022;SDS011;67403;50.104;8.758;2023-04-26T09:34:01;11.30;;;2.25;;
28022;SDS011;67403;50.104;8.758;2023-04-26T09:36:28;4.60;;;2.47;;
28022;SDS011;67403;50.104;8.758;2023-04-26T09:38:56;6.18;;;2.45;;
28022;SDS011;67403;50.104;8.758;2023-04-26T09:41:24;5.85;;;2.65;;
28022;SDS011;67403;50.104;8.758;2023-04-26T09:44:19;4.45;;;2.13;;
28022;SDS011;67403;50.104;8.758;2023-04-26T09:46:56;5.55;;;2.38;;
28022;SDS011;67403;50.104;8.758;2023-04-26T09:49:24;3.38;;;2.13;;
28022;SDS011;67403;50.104;8.758;2023-04-26T09:52:04;7.78;;;2.58;;
28022;SDS011;67403;50.104;8.758;2023-04-26T09:54:38;4.68;;;2.90;;
28022;SDS011;67403;50.104;8.758;2023-04-26T09:57:08;5.85;;;2.88;;
28022;SDS011;67403;50.104;8.758;2023-04-26T09:59:39;7.43;;;2.83;;
28022;SDS011;67403;50.104;8.758;2023-04-26T10:02:18;5.97;;;1.90;;
28022;SDS011;67403;50.104;8.758;2023-04-26T10:04:46;4.93;;;2.60;;
28022;SDS011;67403;50.104;8.758;2023-04-26T10:07:16;3.25;;;2.35;;
28022;SDS011;67403;50.104;8.758;2023-04-26T10:09:43;4.93;;;2.67;;
28022;SDS011;67403;50.104;8.758;2023-04-26T10:12:13;3.72;;;2.53;;
28022;SDS011;67403;50.104;8.758;2023-04-26T10:14:41;8.85;;;2.47;;
28022;SDS011;67403;50.104;8.758;2023-04-26T10:17:08;5.85;;;2.15;;
28022;SDS011;67403;50.104;8.758;2023-04-26T10:19:37;5.88;;;2.33;;
28022;SDS011;67403;50.104;8.758;2023-04-26T10:22:05;4.25;;;2.28;;
28022;SDS011;67403;50.104;8.758;2023-04-26T10:24:35;3.47;;;2.85;;
28022;SDS011;67403;50.104;8.758;2023-04-26T10:27:02;8.50;;;2.95;;
28022;SDS011;67403;50.104;8.758;2023-04-26T10:35:41;3.05;;;2.53;;
28022;SDS011;67403;50.104;8.758;2023-04-26T10:38:26;5.57;;;2.50;;
28022;SDS011;67403;50.104;8.758;2023-04-26T10:40:53;9.85;;;2.70;;
28022;SDS011;67403;50.104;8.758;2023-04-26T10:43:26;6.97;;;2.90;;
28022;SDS011;67403;50.104;8.758;2023-04-26T10:45:55;9.10;;;3.00;;
28022;SDS011;67403;50.104;8.758;2023-04-26T10:48:23;3.85;;;2.50;;
28022;SDS011;67403;50.104;8.758;2023-04-26T10:51:07;9.05;;;2.30;;
28022;SDS011;67403;50.104;8.758;2023-04-26T10:59:19;6.85;;;2.83;;
28022;SDS011;67403;50.104;8.758;2023-04-26T11:01:48;7.78;;;2.80;;
28022;SDS011;67403;50.104;8.758;2023-04-26T11:04:17;7.35;;;2.75;;
28022;SDS011;67403;50.104;8.758;2023-04-26T11:06:47;6.63;;;2.13;;
28022;SDS011;67403;50.104;8.758;2023-04-26T11:09:34;6.28;;;2.20;;
28022;SDS011;67403;50.104;8.758;2023-04-26T11:12:05;5.40;;;2.15;;
28022;SDS011;67403;50.104;8.758;2023-04-26T11:14:36;5.22;;;2.55;;
28022;SDS011;67403;50.104;8.758;2023-04-26T11:17:05;5.05;;;2.90;;
28022;SDS011;67403;50.104;8.758;2023-04-26T11:19:32;4.32;;;2.15;;
28022;SDS011;67403;50.104;8.758;2023-04-26T11:22:00;4.70;;;2.30;;
28022;SDS011;67403;50.104;8.758;2023-04-26T11:24:29;8.13;;;2.80;;
28022;SDS011;67403;50.104;8.758;2023-04-26T11:26:56;2.78;;;2.00;;
28022;SDS011;67403;50.104;8.758;2023-04-26T11:29:23;5.75;;;2.30;;
28022;SDS011;67403;50.104;8.758;2023-04-26T11:31:52;9.70;;;3.80;;
28022;SDS011;67403;50.104;8.758;2023-04-26T11:34:21;9.63;;;2.90;;
28022;SDS011;67403;50.104;8.758;2023-04-26T11:36:50;5.13;;;2.22;;
28022;SDS011;67403;50.104;8.758;2023-04-26T11:39:20;3.80;;;2.42;;
28022;SDS011;67403;50.104;8.758;2023-04-26T11:41:47;5.35;;;2.72;;
28022;SDS011;67403;50.104;8.758;2023-04-26T11:44:17;6.25;;;2.33;;
28022;SDS011;67403;50.104;8.758;2023-04-26T11:46:45;8.70;;;2.78;;
28022;SDS011;67403;50.104;8.758;2023-04-26T11:49:13;4.00;;;2.13;;
28022;SDS011;67403;50.104;8.758;2023-04-26T11:51:42;3.63;;;2.72;;
28022;SDS011;67403;50.104;8.758;2023-04-26T11:54:25;4.88;;;1.90;;
28022;SDS011;67403;50.104;8.758;2023-04-26T11:56:54;4.90;;;2.10;;
28022;SDS011;67403;50.104;8.758;2023-04-26T11:59:24;4.93;;;2.40;;
28022;SDS011;67403;50.104;8.758;2023-04-26T12:01:51;5.30;;;2.17;;
28022;SDS011;67403;50.104;8.758;2023-04-26T12:04:25;4.70;;;2.25;;
28022;SDS011;67403;50.104;8.758;2023-04-26T12:06:55;2.72;;;1.92;;
28022;SDS011;67403;50.104;8.758;2023-04-26T12:09:23;5.35;;;2.08;;
28022;SDS011;67403;50.104;8.758;2023-04-26T12:11:52;10.77;;;3.60;;
28022;SDS011;67403;50.104;8.758;2023-04-26T12:14:23;2.80;;;2.05;;
28022;SDS011;67403;50.104;8.758;2023-04-26T12:16:57;3.40;;;1.80;;
28022;SDS011;67403;50.104;8.758;2023-04-26T12:19:24;4.18;;;1.88;;
28022;SDS011;67403;50.104;8.758;2023-04-26T12:21:51;3.60;;;2.35;;
28022;SDS011;67403;50.104;8.758;2023-04-26T12:24:22;5.97;;;2.13;;
28022;SDS011;67403;50.104;8.758;2023-04-26T12:26:49;4.75;;;2.40;;
28022;SDS011;67403;50.104;8.758;2023-04-26T12:29:16;6.60;;;2.40;;
28022;SDS011;67403;50.104;8.758;2023-04-26T12:31:43;4.07;;;2.25;;
28022;SDS011;67403;50.104;8.758;2023-04-26T12:34:11;4.15;;;2.33;;
28022;SDS011;67403;50.104;8.758;2023-04-26T12:36:39;4.35;;;2.28;;
28022;SDS011;67403;50.104;8.758;2023-04-26T12:39:08;4.75;;;2.83;;
28022;SDS011;67403;50.104;8.758;2023-04-26T12:41:37;5.18;;;2.55;;
28022;SDS011;67403;50.104;8.758;2023-04-26T12:44:04;7.15;;;2.35;;
28022;SDS011;67403;50.104;8.758;2023-04-26T12:46:31;6.82;;;2.10;;
28022;SDS011;67403;50.104;8.758;2023-04-26T12:48:58;4.15;;;2.17;;
28022;SDS011;67403;50.104;8.758;2023-04-26T12:51:25;4.95;;;2.78;;
28022;SDS011;67403;50.104;8.758;2023-04-26T12:53:52;5.32;;;2.08;;
28022;SDS011;67403;50.104;8.758;2023-04-26T12:56:19;5.88;;;2.80;;
28022;SDS011;67403;50.104;8.758;2023-04-26T12:58:47;6.38;;;2.15;;
28022;SDS011;67403;50.104;8.758;2023-04-26T13:01:14;3.63;;;2.05;;
28022;SDS011;67403;50.104;8.758;2023-04-26T13:03:41;2.45;;;1.95;;
28022;SDS011;67403;50.104;8.758;2023-04-26T13:06:09;9.95;;;2.53;;
28022;SDS011;67403;50.104;8.758;2023-04-26T13:08:36;7.97;;;2.47;;
28022;SDS011;67403;50.104;8.758;2023-04-26T13:11:03;5.05;;;2.50;;
28022;SDS011;67403;50.104;8.758;2023-04-26T13:13:30;4.13;;;2.22;;
28022;SDS011;67403;50.104;8.758;2023-04-26T13:15:58;3.40;;;2.42;;
28022;SDS011;67403;50.104;8.758;2023-04-26T13:18:25;6.82;;;2.10;;
28022;SDS011;67403;50.104;8.758;2023-04-26T13:20:52;4.60;;;2.65;;
28022;SDS011;67403;50.104;8.758;2023-04-26T13:23:19;5.65;;;2.78;;
28022;SDS011;67403;50.104;8.758;2023-04-26T13:25:45;5.28;;;2.15;;
28022;SDS011;67403;50.104;8.758;2023-04-26T13:28:12;4.60;;;2.67;;
28022;SDS011;67403;50.104;8.758;2023-04-26T13:30:39;3.28;;;2.35;;
28022;SDS011;67403;50.104;8.758;2023-04-26T13:33:07;4.53;;;2.38;;
28022;SDS011;67403;50.104;8.758;2023-04-26T13:35:35;4.20;;;2.45;;
28022;SDS011;67403;50.104;8.758;2023-04-26T13:38:02;5.97;;;2.25;;
28022;SDS011;67403;50.104;8.758;2023-04-26T13:40:29;3.72;;;2.00;;
28022;SDS011;67403;50.104;8.758;2023-04-26T13:42:55;4.05;;;2.20;;
28022;SDS011;67403;50.104;8.758;2023-04-26T13:45:22;5.43;;;2.10;;
28022;SDS011;67403;50.104;8.758;2023-04-26T13:47:49;4.53;;;2.20;;
28022;SDS011;67403;50.104;8.758;2023-04-26T13:50:18;2.33;;;2.00;;
28022;SDS011;67403;50.104;8.758;2023-04-26T13:52:45;9.90;;;2.55;;
28022;SDS011;67403;50.104;8.758;2023-04-26T13:55:13;2.30;;;1.73;;
28022;SDS011;67403;50.104;8.758;2023-04-26T13:57:41;2.22;;;1.75;;
28022;SDS011;67403;50.104;8.758;2023-04-26T14:00:08;3.80;;;2.13;;
28022;SDS011;67403;50.104;8.758;2023-04-26T14:02:36;4.68;;;2.70;;
28022;SDS011;67403;50.104;8.758;2023-04-26T14:05:03;3.65;;;2.70;;
28022;SDS011;67403;50.104;8.758;2023-04-26T14:07:32;5.30;;;2.35;;
28022;SDS011;67403;50.104;8.758;2023-04-26T14:09:59;9.70;;;3.75;;
28022;SDS011;67403;50.104;8.758;2023-04-26T14:12:26;6.20;;;2.47;;
28022;SDS011;67403;50.104;8.758;2023-04-26T14:14:54;3.42;;;1.92;;
28022;SDS011;67403;50.104;8.758;2023-04-26T14:17:21;6.32;;;1.73;;
28022;SDS011;67403;50.104;8.758;2023-04-26T14:19:47;5.40;;;2.75;;
28022;SDS011;67403;50.104;8.758;2023-04-26T14:22:14;4.95;;;2.35;;
28022;SDS011;67403;50.104;8.758;2023-04-26T14:24:43;4.85;;;2.20;;
28022;SDS011;67403;50.104;8.758;2023-04-26T14:27:10;4.68;;;2.08;;
28022;SDS011;67403;50.104;8.758;2023-04-26T14:29:37;4.65;;;2.10;;
28022;SDS011;67403;50.104;8.758;2023-04-26T14:32:04;4.70;;;2.15;;
28022;SDS011;67403;50.104;8.758;2023-04-26T14:34:32;6.22;;;2.30;;
28022;SDS011;67403;50.104;8.758;2023-04-26T14:37:00;7.15;;;2.00;;
28022;SDS011;67403;50.104;8.758;2023-04-26T14:39:28;3.63;;;1.77;;
28022;SDS011;67403;50.104;8.758;2023-04-26T14:41:56;4.97;;;2.75;;
28022;SDS011;67403;50.104;8.758;2023-04-26T14:44:23;10.55;;;3.17;;
28022;SDS011;67403;50.104;8.758;2023-04-26T14:46:51;5.78;;;2.78;;
28022;SDS011;67403;50.104;8.758;2023-04-26T14:49:18;6.30;;;2.47;;
28022;SDS011;67403;50.104;8.758;2023-04-26T14:51:45;4.47;;;2.22;;
28022;SDS011;67403;50.104;8.758;2023-04-26T14:54:12;3.83;;;1.98;;
28022;SDS011;67403;50.104;8.758;2023-04-26T14:56:39;5.53;;;2.35;;
28022;SDS011;67403;50.104;8.758;2023-04-26T14:59:07;4.72;;;2.35;;
28022;SDS011;67403;50.104;8.758;2023-04-26T15:01:35;4.68;;;3.15;;